sensor_id;sensor_type;location;lat;lon;timestamp;temperature;humidity
27128;DHT22;14660;49.008;8.390;2022-10-16T00:01:30;17.40;99.90
27128;DHT22;14660;49.008;8.390;2022-10-16T00:03:59;17.40;99.90
27128;DHT22;14660;49.008;8.390;2022-10-16T00:06:28;17.30;99.90
27128;DHT22;14660;49.008;8.390;2022-10-16T00:08:56;17.40;99.90
27128;DHT22;14660;49.008;8.390;2022-10-16T00:11:30;17.40;99.90
27128;DHT22;14660;49.008;8.390;2022-10-16T00:14:01;17.50;99.90
27128;DHT22;14660;49.008;8.390;2022-10-16T00:16:29;17.40;99.90
27128;DHT22;14660;49.008;8.390;2022-10-16T00:18:56;17.40;99.90
27128;DHT22;14660;49.008;8.390;2022-10-16T00:21:26;17.40;99.90
27128;DHT22;14660;49.008;8.390;2022-10-16T00:23:57;17.40;99.90
27128;DHT22;14660;49.008;8.390;2022-10-16T00:26:25;17.40;99.90
27128;DHT22;14660;49.008;8.390;2022-10-16T00:28:52;17.40;99.90
27128;DHT22;14660;49.008;8.390;2022-10-16T00:31:22;17.30;99.90
27128;DHT22;14660;49.008;8.390;2022-10-16T00:33:50;17.40;99.90
27128;DHT22;14660;49.008;8.390;2022-10-16T00:36:19;17.40;99.90
27128;DHT22;14660;49.008;8.390;2022-10-16T00:38:46;17.40;99.90
27128;DHT22;14660;49.008;8.390;2022-10-16T00:41:16;17.30;99.90
27128;DHT22;14660;49.008;8.390;2022-10-16T00:44:02;17.30;99.90
27128;DHT22;14660;49.008;8.390;2022-10-16T00:46:40;17.30;99.90
27128;DHT22;14660;49.008;8.390;2022-10-16T00:49:14;17.30;99.90
27128;DHT22;14660;49.008;8.390;2022-10-16T00:51:59;17.40;99.90
27128;DHT22;14660;49.008;8.390;2022-10-16T00:54:29;17.40;99.90
27128;DHT22;14660;49.008;8.390;2022-10-16T00:56:59;17.40;99.90
27128;DHT22;14660;49.008;8.390;2022-10-16T00:59:32;17.30;99.90
27128;DHT22;14660;49.008;8.390;2022-10-16T01:02:00;17.40;99.90
27128;DHT22;14660;49.008;8.390;2022-10-16T01:04:32;17.30;99.90
27128;DHT22;14660;49.008;8.390;2022-10-16T01:19:13;17.30;99.90
27128;DHT22;14660;49.008;8.390;2022-10-16T01:21:43;17.30;99.90
27128;DHT22;14660;49.008;8.390;2022-10-16T01:27:28;17.40;99.90
27128;DHT22;14660;49.008;8.390;2022-10-16T01:33:30;17.40;99.90
27128;DHT22;14660;49.008;8.390;2022-10-16T01:36:02;17.40;99.90
27128;DHT22;14660;49.008;8.390;2022-10-16T01:38:49;17.50;99.90
27128;DHT22;14660;49.008;8.390;2022-10-16T01:41:28;17.40;99.90
27128;DHT22;14660;49.008;8.390;2022-10-16T01:44:18;17.50;99.90
27128;DHT22;14660;49.008;8.390;2022-10-16T01:46:49;17.30;99.90
27128;DHT22;14660;49.008;8.390;2022-10-16T01:49:21;17.30;99.90
27128;DHT22;14660;49.008;8.390;2022-10-16T01:51:54;17.30;99.90
27128;DHT22;14660;49.008;8.390;2022-10-16T01:54:26;17.20;99.90
27128;DHT22;14660;49.008;8.390;2022-10-16T01:56:55;17.30;99.90
27128;DHT22;14660;49.008;8.390;2022-10-16T01:59:26;17.20;99.90
27128;DHT22;14660;49.008;8.390;2022-10-16T02:01:59;17.30;99.90
27128;DHT22;14660;49.008;8.390;2022-10-16T02:04:34;17.30;99.90
27128;DHT22;14660;49.008;8.390;2022-10-16T02:07:04;17.30;99.90
27128;DHT22;14660;49.008;8.390;2022-10-16T02:09:33;17.30;99.90
27128;DHT22;14660;49.008;8.390;2022-10-16T02:12:04;17.20;99.90
27128;DHT22;14660;49.008;8.390;2022-10-16T02:14:33;17.20;99.90
27128;DHT22;14660;49.008;8.390;2022-10-16T02:17:00;17.20;99.90
27128;DHT22;14660;49.008;8.390;2022-10-16T02:19:27;17.20;99.90
27128;DHT22;14660;49.008;8.390;2022-10-16T02:22:00;17.10;99.90
27128;DHT22;14660;49.008;8.390;2022-10-16T02:30:56;17.10;99.90
27128;DHT22;14660;49.008;8.390;2022-10-16T02:33:24;17.10;99.90
27128;DHT22;14660;49.008;8.390;2022-10-16T02:35:53;17.10;99.90
27128;DHT22;14660;49.008;8.390;2022-10-16T02:38:24;17.10;99.90
27128;DHT22;14660;49.008;8.390;2022-10-16T02:40:51;17.10;99.90
27128;DHT22;14660;49.008;8.390;2022-10-16T02:43:25;17.10;99.90
27128;DHT22;14660;49.008;8.390;2022-10-16T02:45:53;17.10;99.90
27128;DHT22;14660;49.008;8.390;2022-10-16T02:48:20;17.10;99.90
27128;DHT22;14660;49.008;8.390;2022-10-16T02:50:47;17.10;99.90
27128;DHT22;14660;49.008;8.390;2022-10-16T02:53:15;17.10;99.90
27128;DHT22;14660;49.008;8.390;2022-10-16T02:55:42;17.00;99.90
27128;DHT22;14660;49.008;8.390;2022-10-16T02:58:11;17.10;99.90
27128;DHT22;14660;49.008;8.390;2022-10-16T03:00:39;17.00;99.90
27128;DHT22;14660;49.008;8.390;2022-10-16T03:03:06;17.00;99.90
27128;DHT22;14660;49.008;8.390;2022-10-16T03:05:33;17.00;99.90
27128;DHT22;14660;49.008;8.390;2022-10-16T03:08:02;17.00;99.90
27128;DHT22;14660;49.008;8.390;2022-10-16T03:10:30;17.00;99.90
27128;DHT22;14660;49.008;8.390;2022-10-16T03:12:57;17.00;99.90
27128;DHT22;14660;49.008;8.390;2022-10-16T03:15:22;17.00;99.90
27128;DHT22;14660;49.008;8.390;2022-10-16T03:17:49;17.00;99.90
27128;DHT22;14660;49.008;8.390;2022-10-16T03:20:17;17.00;99.90
27128;DHT22;14660;49.008;8.390;2022-10-16T03:22:44;17.00;99.90
27128;DHT22;14660;49.008;8.390;2022-10-16T03:25:11;17.10;99.90
27128;DHT22;14660;49.008;8.390;2022-10-16T03:27:38;17.00;99.90
27128;DHT22;14660;49.008;8.390;2022-10-16T03:30:05;17.00;99.90
27128;DHT22;14660;49.008;8.390;2022-10-16T03:32:32;17.00;99.90
27128;DHT22;14660;49.008;8.390;2022-10-16T03:34:59;17.00;99.90
27128;DHT22;14660;49.008;8.390;2022-10-16T03:37:25;17.00;99.90
27128;DHT22;14660;49.008;8.390;2022-10-16T03:39:54;17.00;99.90
27128;DHT22;14660;49.008;8.390;2022-10-16T03:42:23;17.10;99.90
27128;DHT22;14660;49.008;8.390;2022-10-16T03:44:51;17.10;99.90
27128;DHT22;14660;49.008;8.390;2022-10-16T03:47:18;17.20;99.90
27128;DHT22;14660;49.008;8.390;2022-10-16T03:49:51;17.20;99.90
27128;DHT22;14660;49.008;8.390;2022-10-16T03:52:18;17.10;99.90
27128;DHT22;14660;49.008;8.390;2022-10-16T03:54:44;17.10;99.90
27128;DHT22;14660;49.008;8.390;2022-10-16T03:57:11;17.00;99.90
27128;DHT22;14660;49.008;8.390;2022-10-16T03:59:39;17.00;99.90
27128;DHT22;14660;49.008;8.390;2022-10-16T04:02:06;16.90;99.90
27128;DHT22;14660;49.008;8.390;2022-10-16T04:04:33;16.90;99.90
27128;DHT22;14660;49.008;8.390;2022-10-16T04:07:00;16.90;99.90
27128;DHT22;14660;49.008;8.390;2022-10-16T04:09:28;17.00;99.90
27128;DHT22;14660;49.008;8.390;2022-10-16T04:11:55;17.00;99.90
27128;DHT22;14660;49.008;8.390;2022-10-16T04:14:22;17.00;99.90
27128;DHT22;14660;49.008;8.390;2022-10-16T04:16:50;17.00;99.90
27128;DHT22;14660;49.008;8.390;2022-10-16T04:19:16;17.00;99.90
27128;DHT22;14660;49.008;8.390;2022-10-16T04:21:43;17.10;99.90
27128;DHT22;14660;49.008;8.390;2022-10-16T04:24:10;17.10;99.90
27128;DHT22;14660;49.008;8.390;2022-10-16T04:26:38;17.00;99.90
27128;DHT22;14660;49.008;8.390;2022-10-16T04:29:05;17.00;99.90
27128;DHT22;14660;49.008;8.390;2022-10-16T04:31:33;17.00;99.90
27128;DHT22;14660;49.008;8.390;2022-10-16T04:34:08;17.00;99.90
27128;DHT22;14660;49.008;8.390;2022-10-16T04:36:36;17.10;99.90
27128;DHT22;14660;49.008;8.390;2022-10-16T04:39:04;17.10;99.90
27128;DHT22;14660;49.008;8.390;2022-10-16T04:41:31;17.10;99.90
27128;DHT22;14660;49.008;8.390;2022-10-16T04:43:58;17.10;99.90
27128;DHT22;14660;49.008;8.390;2022-10-16T04:46:26;17.10;99.90
27128;DHT22;14660;49.008;8.390;2022-10-16T04:48:53;17.20;99.90
27128;DHT22;14660;49.008;8.390;2022-10-16T04:51:20;17.10;99.90
27128;DHT22;14660;49.008;8.390;2022-10-16T04:53:48;17.10;99.90
27128;DHT22;14660;49.008;8.390;2022-10-16T04:56:15;17.20;99.90
27128;DHT22;14660;49.008;8.390;2022-10-16T04:58:42;17.10;99.90
27128;DHT22;14660;49.008;8.390;2022-10-16T05:01:07;17.20;99.90
27128;DHT22;14660;49.008;8.390;2022-10-16T05:03:33;17.20;99.90
27128;DHT22;14660;49.008;8.390;2022-10-16T05:06:00;17.20;99.90
27128;DHT22;14660;49.008;8.390;2022-10-16T05:08:27;17.20;99.90
27128;DHT22;14660;49.008;8.390;2022-10-16T05:10:53;17.20;99.90
27128;DHT22;14660;49.008;8.390;2022-10-16T05:13:19;17.20;99.90
27128;DHT22;14660;49.008;8.390;2022-10-16T05:15:49;17.20;99.90
27128;DHT22;14660;49.008;8.390;2022-10-16T05:18:15;17.20;99.90
27128;DHT22;14660;49.008;8.390;2022-10-16T05:20:43;17.10;99.90
27128;DHT22;14660;49.008;8.390;2022-10-16T05:23:11;17.20;99.90
27128;DHT22;14660;49.008;8.390;2022-10-16T05:25:39;17.20;99.90
27128;DHT22;14660;49.008;8.390;2022-10-16T05:28:05;17.10;99.90
27128;DHT22;14660;49.008;8.390;2022-10-16T05:30:31;17.20;99.90
27128;DHT22;14660;49.008;8.390;2022-10-16T05:32:58;17.10;99.90
27128;DHT22;14660;49.008;8.390;2022-10-16T05:35:25;17.10;99.90
27128;DHT22;14660;49.008;8.390;2022-10-16T05:37:52;17.10;99.90
27128;DHT22;14660;49.008;8.390;2022-10-16T05:40:18;17.10;99.90
27128;DHT22;14660;49.008;8.390;2022-10-16T05:42:43;17.00;99.90
27128;DHT22;14660;49.008;8.390;2022-10-16T05:45:10;17.00;99.90
27128;DHT22;14660;49.008;8.390;2022-10-16T05:47:38;17.00;99.90
27128;DHT22;14660;49.008;8.390;2022-10-16T05:50:06;16.90;99.90
27128;DHT22;14660;49.008;8.390;2022-10-16T05:52:36;16.90;99.90
27128;DHT22;14660;49.008;8.390;2022-10-16T05:55:04;16.90;99.90
27128;DHT22;14660;49.008;8.390;2022-10-16T05:57:30;16.90;99.90
27128;DHT22;14660;49.008;8.390;2022-10-16T05:59:56;16.90;99.90
27128;DHT22;14660;49.008;8.390;2022-10-16T06:02:24;16.90;99.90
27128;DHT22;14660;49.008;8.390;2022-10-16T06:04:51;16.90;99.90
27128;DHT22;14660;49.008;8.390;2022-10-16T06:07:19;17.00;99.90
27128;DHT22;14660;49.008;8.390;2022-10-16T06:10:01;17.00;99.90
27128;DHT22;14660;49.008;8.390;2022-10-16T06:12:28;16.90;99.90
27128;DHT22;14660;49.008;8.390;2022-10-16T06:14:55;16.90;99.90
27128;DHT22;14660;49.008;8.390;2022-10-16T06:17:21;16.90;99.90
27128;DHT22;14660;49.008;8.390;2022-10-16T06:19:49;16.80;99.90
27128;DHT22;14660;49.008;8.390;2022-10-16T06:22:15;16.90;99.90
27128;DHT22;14660;49.008;8.390;2022-10-16T06:24:43;16.90;99.90
27128;DHT22;14660;49.008;8.390;2022-10-16T06:27:09;17.00;99.90
27128;DHT22;14660;49.008;8.390;2022-10-16T06:29:37;17.00;99.90
27128;DHT22;14660;49.008;8.390;2022-10-16T06:32:13;17.00;99.90
27128;DHT22;14660;49.008;8.390;2022-10-16T06:34:42;17.00;99.90
27128;DHT22;14660;49.008;8.390;2022-10-16T06:37:09;17.00;99.90
27128;DHT22;14660;49.008;8.390;2022-10-16T06:39:36;17.10;99.90
27128;DHT22;14660;49.008;8.390;2022-10-16T06:42:03;17.10;99.90
27128;DHT22;14660;49.008;8.390;2022-10-16T06:44:30;17.10;99.90
27128;DHT22;14660;49.008;8.390;2022-10-16T06:46:57;17.10;99.90
27128;DHT22;14660;49.008;8.390;2022-10-16T06:49:25;17.10;99.90
27128;DHT22;14660;49.008;8.390;2022-10-16T06:52:02;17.10;99.90
27128;DHT22;14660;49.008;8.390;2022-10-16T06:54:33;17.10;99.90
27128;DHT22;14660;49.008;8.390;2022-10-16T06:57:01;17.10;99.90
27128;DHT22;14660;49.008;8.390;2022-10-16T06:59:37;17.10;99.90
27128;DHT22;14660;49.008;8.390;2022-10-16T07:02:08;17.00;99.90
27128;DHT22;14660;49.008;8.390;2022-10-16T07:04:36;17.10;99.90
27128;DHT22;14660;49.008;8.390;2022-10-16T07:07:02;17.20;99.90
27128;DHT22;14660;49.008;8.390;2022-10-16T07:09:29;17.20;99.90
27128;DHT22;14660;49.008;8.390;2022-10-16T07:11:56;17.30;99.90
27128;DHT22;14660;49.008;8.390;2022-10-16T07:14:23;17.30;99.90
27128;DHT22;14660;49.008;8.390;2022-10-16T07:16:49;17.30;99.90
27128;DHT22;14660;49.008;8.390;2022-10-16T07:19:18;17.40;99.90
27128;DHT22;14660;49.008;8.390;2022-10-16T07:21:44;17.40;99.90
27128;DHT22;14660;49.008;8.390;2022-10-16T07:24:14;17.40;99.90
27128;DHT22;14660;49.008;8.390;2022-10-16T07:26:45;17.40;99.90
27128;DHT22;14660;49.008;8.390;2022-10-16T07:29:16;17.50;99.90
27128;DHT22;14660;49.008;8.390;2022-10-16T07:31:43;17.50;99.90
27128;DHT22;14660;49.008;8.390;2022-10-16T07:34:12;17.50;99.90
27128;DHT22;14660;49.008;8.390;2022-10-16T07:36:40;17.50;99.90
27128;DHT22;14660;49.008;8.390;2022-10-16T07:39:08;17.60;99.90
27128;DHT22;14660;49.008;8.390;2022-10-16T07:41:37;17.60;99.90
27128;DHT22;14660;49.008;8.390;2022-10-16T07:44:04;17.70;99.90
27128;DHT22;14660;49.008;8.390;2022-10-16T07:46:32;17.70;99.90
27128;DHT22;14660;49.008;8.390;2022-10-16T07:49:01;17.80;99.90
27128;DHT22;14660;49.008;8.390;2022-10-16T07:51:32;17.80;99.90
27128;DHT22;14660;49.008;8.390;2022-10-16T07:53:59;18.00;99.90
27128;DHT22;14660;49.008;8.390;2022-10-16T07:56:26;18.00;99.90
27128;DHT22;14660;49.008;8.390;2022-10-16T07:58:53;18.00;99.90
27128;DHT22;14660;49.008;8.390;2022-10-16T08:01:20;18.00;99.90
27128;DHT22;14660;49.008;8.390;2022-10-16T08:03:50;18.10;99.90
27128;DHT22;14660;49.008;8.390;2022-10-16T08:06:19;18.20;99.90
27128;DHT22;14660;49.008;8.390;2022-10-16T08:08:46;18.20;99.90
27128;DHT22;14660;49.008;8.390;2022-10-16T08:11:14;18.30;99.90
27128;DHT22;14660;49.008;8.390;2022-10-16T08:13:41;18.30;99.90
27128;DHT22;14660;49.008;8.390;2022-10-16T08:16:09;18.40;99.90
27128;DHT22;14660;49.008;8.390;2022-10-16T08:18:40;18.40;99.90
27128;DHT22;14660;49.008;8.390;2022-10-16T08:21:07;18.60;99.90
27128;DHT22;14660;49.008;8.390;2022-10-16T08:23:35;18.60;99.90
27128;DHT22;14660;49.008;8.390;2022-10-16T08:26:07;18.70;99.90
27128;DHT22;14660;49.008;8.390;2022-10-16T08:28:35;18.70;99.90
27128;DHT22;14660;49.008;8.390;2022-10-16T08:33:55;18.70;99.90
27128;DHT22;14660;49.008;8.390;2022-10-16T08:36:21;18.80;99.90
27128;DHT22;14660;49.008;8.390;2022-10-16T08:38:51;18.80;99.90
27128;DHT22;14660;49.008;8.390;2022-10-16T08:50:27;19.00;99.90
27128;DHT22;14660;49.008;8.390;2022-10-16T08:52:55;19.00;99.90
27128;DHT22;14660;49.008;8.390;2022-10-16T08:55:50;19.00;99.90
27128;DHT22;14660;49.008;8.390;2022-10-16T08:58:21;19.00;99.90
27128;DHT22;14660;49.008;8.390;2022-10-16T09:00:53;19.10;99.90
27128;DHT22;14660;49.008;8.390;2022-10-16T09:21:36;19.30;99.90
27128;DHT22;14660;49.008;8.390;2022-10-16T09:24:24;19.30;99.90
27128;DHT22;14660;49.008;8.390;2022-10-16T09:26:51;19.30;99.90
27128;DHT22;14660;49.008;8.390;2022-10-16T09:29:24;19.20;99.90
27128;DHT22;14660;49.008;8.390;2022-10-16T09:31:51;19.20;99.90
27128;DHT22;14660;49.008;8.390;2022-10-16T09:34:36;19.10;99.90
27128;DHT22;14660;49.008;8.390;2022-10-16T09:37:10;19.10;99.90
27128;DHT22;14660;49.008;8.390;2022-10-16T09:39:54;19.00;99.90
27128;DHT22;14660;49.008;8.390;2022-10-16T09:44:52;19.10;99.90
27128;DHT22;14660;49.008;8.390;2022-10-16T09:47:20;19.20;99.90
27128;DHT22;14660;49.008;8.390;2022-10-16T09:50:04;19.30;99.90
27128;DHT22;14660;49.008;8.390;2022-10-16T09:52:32;19.30;99.90
27128;DHT22;14660;49.008;8.390;2022-10-16T09:55:02;19.40;99.90
27128;DHT22;14660;49.008;8.390;2022-10-16T09:57:29;19.50;99.90
27128;DHT22;14660;49.008;8.390;2022-10-16T09:59:57;19.50;99.90
27128;DHT22;14660;49.008;8.390;2022-10-16T10:02:37;19.60;99.90
27128;DHT22;14660;49.008;8.390;2022-10-16T10:05:05;19.70;99.90
27128;DHT22;14660;49.008;8.390;2022-10-16T10:07:43;19.70;99.90
27128;DHT22;14660;49.008;8.390;2022-10-16T10:13:23;19.80;99.90
27128;DHT22;14660;49.008;8.390;2022-10-16T10:15:53;19.80;99.90
27128;DHT22;14660;49.008;8.390;2022-10-16T10:18:29;19.80;99.90
27128;DHT22;14660;49.008;8.390;2022-10-16T10:21:02;19.80;99.90
27128;DHT22;14660;49.008;8.390;2022-10-16T10:23:39;19.80;99.90
27128;DHT22;14660;49.008;8.390;2022-10-16T10:26:18;19.70;99.90
27128;DHT22;14660;49.008;8.390;2022-10-16T10:29:12;19.70;99.90
27128;DHT22;14660;49.008;8.390;2022-10-16T10:44:15;19.70;99.90
27128;DHT22;14660;49.008;8.390;2022-10-16T10:47:02;19.90;99.90
27128;DHT22;14660;49.008;8.390;2022-10-16T10:56:06;19.80;99.90
27128;DHT22;14660;49.008;8.390;2022-10-16T11:02:05;19.70;99.90
27128;DHT22;14660;49.008;8.390;2022-10-16T11:05:18;19.70;99.90
27128;DHT22;14660;49.008;8.390;2022-10-16T11:08:09;19.90;99.90
27128;DHT22;14660;49.008;8.390;2022-10-16T11:14:14;20.10;99.90
27128;DHT22;14660;49.008;8.390;2022-10-16T11:17:27;20.40;99.90
27128;DHT22;14660;49.008;8.390;2022-10-16T11:22:57;20.90;99.90
27128;DHT22;14660;49.008;8.390;2022-10-16T11:25:36;21.00;99.90
27128;DHT22;14660;49.008;8.390;2022-10-16T11:28:32;21.10;99.90
27128;DHT22;14660;49.008;8.390;2022-10-16T11:37:24;21.40;99.90
27128;DHT22;14660;49.008;8.390;2022-10-16T11:39:58;21.40;99.90
27128;DHT22;14660;49.008;8.390;2022-10-16T11:42:41;21.50;99.90
27128;DHT22;14660;49.008;8.390;2022-10-16T11:45:42;21.60;99.90
27128;DHT22;14660;49.008;8.390;2022-10-16T11:48:31;21.70;99.90
27128;DHT22;14660;49.008;8.390;2022-10-16T11:57:20;21.70;99.90
27128;DHT22;14660;49.008;8.390;2022-10-16T12:00:00;21.80;99.90
27128;DHT22;14660;49.008;8.390;2022-10-16T12:08:39;21.90;99.90
27128;DHT22;14660;49.008;8.390;2022-10-16T12:11:20;21.90;99.90
27128;DHT22;14660;49.008;8.390;2022-10-16T12:13:50;21.90;99.90
27128;DHT22;14660;49.008;8.390;2022-10-16T12:16:36;21.90;99.90
27128;DHT22;14660;49.008;8.390;2022-10-16T12:19:14;21.90;99.90
27128;DHT22;14660;49.008;8.390;2022-10-16T12:21:44;21.90;99.90
27128;DHT22;14660;49.008;8.390;2022-10-16T12:24:39;21.90;99.90
27128;DHT22;14660;49.008;8.390;2022-10-16T12:27:25;22.00;99.90
27128;DHT22;14660;49.008;8.390;2022-10-16T12:30:00;22.00;99.90
27128;DHT22;14660;49.008;8.390;2022-10-16T12:32:45;22.00;99.90
27128;DHT22;14660;49.008;8.390;2022-10-16T12:35:30;21.90;99.90
27128;DHT22;14660;49.008;8.390;2022-10-16T12:38:14;21.70;99.90
27128;DHT22;14660;49.008;8.390;2022-10-16T12:40:43;21.70;99.90
27128;DHT22;14660;49.008;8.390;2022-10-16T12:46:04;21.70;99.90
27128;DHT22;14660;49.008;8.390;2022-10-16T12:48:32;21.70;99.90
27128;DHT22;14660;49.008;8.390;2022-10-16T12:51:54;21.70;99.90
27128;DHT22;14660;49.008;8.390;2022-10-16T12:54:37;21.70;99.90
27128;DHT22;14660;49.008;8.390;2022-10-16T13:03:38;21.80;99.90
27128;DHT22;14660;49.008;8.390;2022-10-16T13:33:47;21.30;99.90
27128;DHT22;14660;49.008;8.390;2022-10-16T13:36:34;21.20;99.90
27128;DHT22;14660;49.008;8.390;2022-10-16T13:42:33;21.30;99.90
27128;DHT22;14660;49.008;8.390;2022-10-16T13:45:02;21.30;99.90
27128;DHT22;14660;49.008;8.390;2022-10-16T13:47:30;21.20;99.90
27128;DHT22;14660;49.008;8.390;2022-10-16T13:50:15;21.20;99.90
27128;DHT22;14660;49.008;8.390;2022-10-16T13:52:43;21.10;99.90
27128;DHT22;14660;49.008;8.390;2022-10-16T13:55:17;21.10;99.90
27128;DHT22;14660;49.008;8.390;2022-10-16T13:57:45;21.10;99.90
27128;DHT22;14660;49.008;8.390;2022-10-16T14:00:21;21.00;99.90
27128;DHT22;14660;49.008;8.390;2022-10-16T14:03:13;21.00;99.90
27128;DHT22;14660;49.008;8.390;2022-10-16T14:05:56;21.00;99.90
27128;DHT22;14660;49.008;8.390;2022-10-16T14:08:25;21.00;99.90
27128;DHT22;14660;49.008;8.390;2022-10-16T14:10:59;21.00;99.90
27128;DHT22;14660;49.008;8.390;2022-10-16T14:13:38;20.90;99.90
27128;DHT22;14660;49.008;8.390;2022-10-16T14:16:09;20.90;99.90
27128;DHT22;14660;49.008;8.390;2022-10-16T14:18:37;20.80;99.90
27128;DHT22;14660;49.008;8.390;2022-10-16T14:21:06;20.80;99.90
27128;DHT22;14660;49.008;8.390;2022-10-16T14:23:38;20.70;99.90
27128;DHT22;14660;49.008;8.390;2022-10-16T14:26:27;20.80;99.90
27128;DHT22;14660;49.008;8.390;2022-10-16T14:29:14;20.80;99.90
27128;DHT22;14660;49.008;8.390;2022-10-16T14:31:41;20.90;99.90
27128;DHT22;14660;49.008;8.390;2022-10-16T14:34:52;21.00;99.90
27128;DHT22;14660;49.008;8.390;2022-10-16T14:37:25;21.00;99.90
27128;DHT22;14660;49.008;8.390;2022-10-16T14:39:52;21.10;99.90
27128;DHT22;14660;49.008;8.390;2022-10-16T14:42:21;21.20;99.90
27128;DHT22;14660;49.008;8.390;2022-10-16T14:44:51;21.30;99.90
27128;DHT22;14660;49.008;8.390;2022-10-16T14:47:23;21.30;99.90
27128;DHT22;14660;49.008;8.390;2022-10-16T14:49:54;21.30;99.90
27128;DHT22;14660;49.008;8.390;2022-10-16T14:52:22;21.40;99.90
27128;DHT22;14660;49.008;8.390;2022-10-16T14:54:51;21.30;99.90
27128;DHT22;14660;49.008;8.390;2022-10-16T14:57:24;21.20;99.90
27128;DHT22;14660;49.008;8.390;2022-10-16T14:59:52;21.30;99.90
27128;DHT22;14660;49.008;8.390;2022-10-16T15:02:38;21.20;99.90
27128;DHT22;14660;49.008;8.390;2022-10-16T15:05:26;21.40;99.90
27128;DHT22;14660;49.008;8.390;2022-10-16T15:07:54;21.30;99.90
27128;DHT22;14660;49.008;8.390;2022-10-16T15:10:23;21.10;99.90
27128;DHT22;14660;49.008;8.390;2022-10-16T15:12:51;21.20;99.90
27128;DHT22;14660;49.008;8.390;2022-10-16T15:18:22;21.10;99.90
27128;DHT22;14660;49.008;8.390;2022-10-16T15:20:52;21.10;99.90
27128;DHT22;14660;49.008;8.390;2022-10-16T15:23:21;21.00;99.90
27128;DHT22;14660;49.008;8.390;2022-10-16T15:25:53;21.00;99.90
27128;DHT22;14660;49.008;8.390;2022-10-16T15:28:22;21.10;99.90
27128;DHT22;14660;49.008;8.390;2022-10-16T15:30:51;21.10;99.90
27128;DHT22;14660;49.008;8.390;2022-10-16T15:33:24;21.10;99.90
27128;DHT22;14660;49.008;8.390;2022-10-16T15:36:02;21.10;99.90
27128;DHT22;14660;49.008;8.390;2022-10-16T15:38:28;21.00;99.90
27128;DHT22;14660;49.008;8.390;2022-10-16T15:40:59;21.00;99.90
27128;DHT22;14660;49.008;8.390;2022-10-16T15:43:32;21.00;99.90
27128;DHT22;14660;49.008;8.390;2022-10-16T15:46:08;21.00;99.90
27128;DHT22;14660;49.008;8.390;2022-10-16T15:48:37;21.00;99.90
27128;DHT22;14660;49.008;8.390;2022-10-16T15:51:08;21.00;99.90
27128;DHT22;14660;49.008;8.390;2022-10-16T15:53:36;21.00;99.90
27128;DHT22;14660;49.008;8.390;2022-10-16T15:56:05;21.00;99.90
27128;DHT22;14660;49.008;8.390;2022-10-16T15:58:33;21.00;99.90
27128;DHT22;14660;49.008;8.390;2022-10-16T16:01:01;20.90;99.90
27128;DHT22;14660;49.008;8.390;2022-10-16T16:03:33;21.00;99.90
27128;DHT22;14660;49.008;8.390;2022-10-16T16:06:04;20.90;99.90
27128;DHT22;14660;49.008;8.390;2022-10-16T16:08:32;20.90;99.90
27128;DHT22;14660;49.008;8.390;2022-10-16T16:13:38;20.80;99.90
27128;DHT22;14660;49.008;8.390;2022-10-16T16:16:13;20.70;99.90
27128;DHT22;14660;49.008;8.390;2022-10-16T16:18:42;20.70;99.90
27128;DHT22;14660;49.008;8.390;2022-10-16T16:21:11;20.60;99.90
27128;DHT22;14660;49.008;8.390;2022-10-16T16:23:38;20.60;99.90
27128;DHT22;14660;49.008;8.390;2022-10-16T16:29:14;20.50;99.90
27128;DHT22;14660;49.008;8.390;2022-10-16T16:31:45;20.50;99.90
27128;DHT22;14660;49.008;8.390;2022-10-16T16:34:14;20.30;99.90
27128;DHT22;14660;49.008;8.390;2022-10-16T16:36:43;20.30;99.90
27128;DHT22;14660;49.008;8.390;2022-10-16T16:39:10;20.20;99.90
27128;DHT22;14660;49.008;8.390;2022-10-16T16:41:37;20.30;99.90
27128;DHT22;14660;49.008;8.390;2022-10-16T16:44:07;20.20;99.90
27128;DHT22;14660;49.008;8.390;2022-10-16T16:46:35;20.10;99.90
27128;DHT22;14660;49.008;8.390;2022-10-16T16:49:03;20.00;99.90
27128;DHT22;14660;49.008;8.390;2022-10-16T16:51:30;20.00;99.90
27128;DHT22;14660;49.008;8.390;2022-10-16T16:53:59;20.10;99.90
27128;DHT22;14660;49.008;8.390;2022-10-16T16:56:27;20.00;99.90
27128;DHT22;14660;49.008;8.390;2022-10-16T16:58:56;20.00;99.90
27128;DHT22;14660;49.008;8.390;2022-10-16T17:01:25;19.90;99.90
27128;DHT22;14660;49.008;8.390;2022-10-16T17:03:53;19.90;99.90
27128;DHT22;14660;49.008;8.390;2022-10-16T17:06:23;19.80;99.90
27128;DHT22;14660;49.008;8.390;2022-10-16T17:08:50;19.80;99.90
27128;DHT22;14660;49.008;8.390;2022-10-16T17:11:20;19.80;99.90
27128;DHT22;14660;49.008;8.390;2022-10-16T17:13:48;19.70;99.90
27128;DHT22;14660;49.008;8.390;2022-10-16T17:16:18;19.60;99.90
27128;DHT22;14660;49.008;8.390;2022-10-16T17:18:45;19.60;99.90
27128;DHT22;14660;49.008;8.390;2022-10-16T17:21:12;19.60;99.90
27128;DHT22;14660;49.008;8.390;2022-10-16T17:23:39;19.50;99.90
27128;DHT22;14660;49.008;8.390;2022-10-16T17:26:07;19.50;99.90
27128;DHT22;14660;49.008;8.390;2022-10-16T17:28:33;19.50;99.90
27128;DHT22;14660;49.008;8.390;2022-10-16T17:31:22;19.40;99.90
27128;DHT22;14660;49.008;8.390;2022-10-16T17:33:47;19.40;99.90
27128;DHT22;14660;49.008;8.390;2022-10-16T17:36:14;19.50;99.90
27128;DHT22;14660;49.008;8.390;2022-10-16T17:38:42;19.50;99.90
27128;DHT22;14660;49.008;8.390;2022-10-16T17:41:27;19.50;99.90
27128;DHT22;14660;49.008;8.390;2022-10-16T17:43:54;19.40;99.90
27128;DHT22;14660;49.008;8.390;2022-10-16T17:46:22;19.40;99.90
27128;DHT22;14660;49.008;8.390;2022-10-16T17:49:02;19.50;99.90
27128;DHT22;14660;49.008;8.390;2022-10-16T17:51:32;19.50;99.90
27128;DHT22;14660;49.008;8.390;2022-10-16T17:54:00;19.40;99.90
27128;DHT22;14660;49.008;8.390;2022-10-16T17:56:28;19.30;99.90
27128;DHT22;14660;49.008;8.390;2022-10-16T17:59:00;19.30;99.90
27128;DHT22;14660;49.008;8.390;2022-10-16T18:01:33;19.30;99.90
27128;DHT22;14660;49.008;8.390;2022-10-16T18:04:00;19.20;99.90
27128;DHT22;14660;49.008;8.390;2022-10-16T18:06:28;19.20;99.90
27128;DHT22;14660;49.008;8.390;2022-10-16T18:09:05;19.10;99.90
27128;DHT22;14660;49.008;8.390;2022-10-16T18:11:33;19.10;99.90
27128;DHT22;14660;49.008;8.390;2022-10-16T18:14:02;19.10;99.90
27128;DHT22;14660;49.008;8.390;2022-10-16T18:16:32;19.00;99.90
27128;DHT22;14660;49.008;8.390;2022-10-16T18:19:01;18.90;99.90
27128;DHT22;14660;49.008;8.390;2022-10-16T18:21:27;18.90;99.90
27128;DHT22;14660;49.008;8.390;2022-10-16T18:23:57;19.00;99.90
27128;DHT22;14660;49.008;8.390;2022-10-16T18:26:24;19.00;99.90
27128;DHT22;14660;49.008;8.390;2022-10-16T18:28:55;19.10;99.90
27128;DHT22;14660;49.008;8.390;2022-10-16T18:31:25;19.10;99.90
27128;DHT22;14660;49.008;8.390;2022-10-16T18:33:54;19.00;99.90